Time;durP1;ratioP1;P1;durP2;ratioP2;P2;SDS_P1;SDS_P2;PMS_P1;PMS_P2;Temp;Humidity;BMP_temperature;BMP_pressure;BME280_temperature;BME280_humidity;BME280_pressure;Samples;Min_cycle;Max_cycle;Signal;HPM_P1;HPM_P2
2023/12/17 00:00:24;;;;;;;8.18;4.57;;;;;;;15.51;53.03;103614.91;5072296;28;20048;-58
2023/12/17 00:02:50;;;;;;;14.07;5.32;;;;;;;15.49;51.50;103600.63;5071993;28;20032;-59
2023/12/17 00:05:16;;;;;;;10.35;5.15;;;;;;;15.49;52.90;103600.63;5071880;28;20457;-58
2023/12/17 00:07:41;;;;;;;8.27;5.05;;;;;;;15.47;52.15;103590.84;5072857;28;20033;-58
2023/12/17 00:10:08;;;;;;;10.98;5.10;;;;;;;15.50;52.46;103602.34;5072879;28;20036;-58
2023/12/17 00:12:33;;;;;;;8.98;4.95;;;;;;;15.51;52.13;103609.50;5073224;28;20060;-58
2023/12/17 00:14:58;;;;;;;10.18;5.43;;;;;;;15.51;52.91;103623.03;5071750;28;20114;-58
2023/12/17 00:17:24;;;;;;;9.82;6.00;;;;;;;15.54;52.27;103627.38;5072814;28;20384;-58
2023/12/17 00:19:50;;;;;;;8.18;4.13;;;;;;;15.57;53.04;103610.97;5071506;28;20045;-58
2023/12/17 00:22:15;;;;;;;14.82;5.38;;;;;;;15.56;51.80;103610.09;5072943;28;20024;-58
2023/12/17 00:24:40;;;;;;;11.18;4.97;;;;;;;15.59;52.18;103601.81;5071153;28;20028;-58
2023/12/17 00:27:06;;;;;;;12.18;5.60;;;;;;;15.62;52.38;103609.72;5071410;28;20052;-58
2023/12/17 00:29:31;;;;;;;15.43;6.03;;;;;;;15.65;51.94;103612.25;5071801;28;20033;-58
2023/12/17 00:31:56;;;;;;;15.43;5.50;;;;;;;15.66;53.36;103603.16;5072853;28;20492;-58
2023/12/17 00:34:22;;;;;;;13.68;6.25;;;;;;;15.70;52.90;103610.13;5054739;28;20116;-59
2023/12/17 00:36:47;;;;;;;15.82;5.80;;;;;;;15.71;52.76;103606.47;5072901;28;20036;-58
2023/12/17 00:39:13;;;;;;;14.32;5.88;;;;;;;15.71;53.26;103606.47;5072678;28;20568;-58
2023/12/17 00:41:38;;;;;;;14.75;4.90;;;;;;;15.71;52.52;103603.75;5071676;28;20041;-58
2023/12/17 00:44:04;;;;;;;12.05;5.95;;;;;;;15.70;51.97;103604.72;5071365;28;20041;-58
2023/12/17 00:46:29;;;;;;;11.55;5.40;;;;;;;15.71;52.90;103603.75;5072601;28;20036;-58
2023/12/17 00:48:55;;;;;;;13.50;5.43;;;;;;;15.72;52.29;103601.91;5054658;28;20445;-58
2023/12/17 00:51:21;;;;;;;10.98;5.10;;;;;;;15.69;52.06;103600.25;5072810;28;20049;-58
2023/12/17 00:53:46;;;;;;;11.35;5.50;;;;;;;15.72;52.22;103600.06;5073314;28;20116;-58
2023/12/17 00:56:12;;;;;;;10.70;5.28;;;;;;;15.71;52.19;103594.78;5058034;28;20504;-59
2023/12/17 00:58:37;;;;;;;15.02;6.32;;;;;;;15.69;52.25;103597.56;5075091;28;20059;-64
2023/12/17 01:01:04;;;;;;;10.60;5.47;;;;;;;15.71;52.32;103594.78;5075916;28;20067;-58
2023/12/17 01:03:29;;;;;;;10.43;5.68;;;;;;;15.69;52.44;103591.28;5072637;28;20530;-58
2023/12/17 01:05:54;;;;;;;10.60;5.85;;;;;;;15.67;52.16;103591.38;5064965;28;20059;-58
2023/12/17 01:08:20;;;;;;;10.35;5.45;;;;;;;15.67;52.85;103586.00;5072904;28;20047;-58
2023/12/17 01:10:45;;;;;;;10.90;6.53;;;;;;;15.68;52.67;103593.16;5072328;28;20115;-58
2023/12/17 01:13:10;;;;;;;14.65;5.47;;;;;;;15.68;52.22;103600.38;5074361;28;20419;-58
2023/12/17 01:15:36;;;;;;;8.73;4.68;;;;;;;15.66;52.43;103602.31;5074643;28;20451;-59
2023/12/17 01:18:02;;;;;;;10.23;5.53;;;;;;;15.64;52.29;103594.28;5075987;28;20473;-58
2023/12/17 01:20:27;;;;;;;13.77;5.85;;;;;;;15.62;51.97;103601.63;5075975;28;20394;-58
2023/12/17 01:22:52;;;;;;;6.63;4.75;;;;;;;15.62;52.78;103600.75;5075641;28;20043;-58
2023/12/17 01:25:18;;;;;;;9.50;5.70;;;;;;;15.62;52.85;103593.50;5074755;28;20067;-58
2023/12/17 01:27:43;;;;;;;8.75;5.80;;;;;;;15.60;52.96;103598.16;5057912;28;20028;-58
2023/12/17 01:30:09;;;;;;;9.18;5.53;;;;;;;15.61;52.44;103596.28;5075550;28;20040;-59
2023/12/17 01:32:34;;;;;;;10.68;5.60;;;;;;;15.60;52.84;103586.47;5075760;28;20078;-58
2023/12/17 01:35:00;;;;;;;11.50;4.70;;;;;;;15.58;52.21;103591.94;5074556;28;20111;-59
2023/12/17 01:37:25;;;;;;;11.93;5.20;;;;;;;15.59;53.52;103595.53;5073479;28;20051;-58
2023/12/17 01:39:50;;;;;;;8.52;5.05;;;;;;;15.56;52.84;103591.19;5074281;28;20040;-58
2023/12/17 01:42:16;;;;;;;9.10;5.35;;;;;;;15.57;51.80;103598.34;5073979;28;20403;-58
2023/12/17 01:44:41;;;;;;;9.18;5.63;;;;;;;15.55;52.24;103602.94;5075445;28;20408;-58
2023/12/17 01:47:08;;;;;;;13.80;6.40;;;;;;;15.53;52.76;103618.38;5074160;28;20111;-59
2023/12/17 01:49:33;;;;;;;12.32;6.00;;;;;;;15.53;53.00;103612.97;5074127;28;20495;-58
2023/12/17 01:51:59;;;;;;;10.98;5.80;;;;;;;15.52;53.34;103611.22;5074001;28;20090;-58
2023/12/17 01:54:24;;;;;;;10.95;5.63;;;;;;;15.53;52.86;103612.09;5057525;28;20369;-58
2023/12/17 01:56:50;;;;;;;13.63;6.65;;;;;;;15.54;52.64;103611.16;5056405;28;20044;-58
2023/12/17 01:59:15;;;;;;;11.10;6.07;;;;;;;15.54;52.64;103612.03;5075144;28;20044;-62
2023/12/17 02:01:42;;;;;;;10.57;5.30;;;;;;;15.53;53.28;103612.09;5074019;28;20036;-62
2023/12/17 02:04:09;;;;;;;13.15;6.05;;;;;;;15.52;52.76;103608.53;5074155;28;20043;-62
2023/12/17 02:06:34;;;;;;;11.30;5.93;;;;;;;15.50;52.58;103602.34;5075192;28;20059;-61
2023/12/17 02:08:59;;;;;;;11.45;6.60;;;;;;;15.48;52.70;103593.47;5073740;28;20045;-62
2023/12/17 02:11:25;;;;;;;16.90;6.78;;;;;;;15.46;52.41;103591.81;5073598;28;20036;-61
2023/12/17 02:13:50;;;;;;;12.75;6.43;;;;;;;15.47;53.03;103597.13;5073168;28;20399;-61
2023/12/17 02:16:17;;;;;;;14.02;6.57;;;;;;;15.45;53.11;103590.06;5073654;28;20041;-61
2023/12/17 02:18:42;;;;;;;12.55;5.43;;;;;;;15.47;52.65;103590.84;5074718;28;20082;-62
2023/12/17 02:21:07;;;;;;;13.02;5.53;;;;;;;15.45;52.78;103581.94;5073291;28;20036;-62
2023/12/17 02:23:33;;;;;;;14.07;6.85;;;;;;;15.47;52.97;103589.03;5056149;28;20040;-61
2023/12/17 02:25:59;;;;;;;12.57;5.97;;;;;;;15.50;52.58;103596.06;5073386;28;20116;-62
2023/12/17 02:28:24;;;;;;;12.27;6.75;;;;;;;15.47;52.54;103578.22;5073675;28;20021;-61
2023/12/17 02:30:49;;;;;;;11.77;5.82;;;;;;;15.49;52.67;103592.53;5073368;28;20404;-62
2023/12/17 02:33:15;;;;;;;13.55;6.43;;;;;;;15.50;53.09;103591.56;5073293;28;20048;-62
2023/12/17 02:35:40;;;;;;;16.98;6.85;;;;;;;15.53;52.16;103599.47;5073292;28;20067;-61
2023/12/17 02:38:05;;;;;;;15.23;5.90;;;;;;;15.52;53.64;103589.63;5073240;28;20411;-62
2023/12/17 02:40:31;;;;;;;14.95;6.10;;;;;;;15.54;52.87;103589.53;5057329;28;20040;-61
2023/12/17 02:42:56;;;;;;;15.95;6.75;;;;;;;15.53;53.05;103585.97;5074709;28;20500;-62
2023/12/17 02:45:21;;;;;;;10.02;5.95;;;;;;;15.52;53.17;103592.31;5073168;28;20059;-61
2023/12/17 02:47:47;;;;;;;13.50;5.78;;;;;;;15.50;53.79;103599.66;5072975;28;20078;-62
2023/12/17 02:50:12;;;;;;;11.02;5.70;;;;;;;15.47;53.08;103597.13;5064343;28;20131;-61
2023/12/17 02:52:37;;;;;;;14.13;6.78;;;;;;;15.49;53.26;103599.75;5074109;28;20396;-62
2023/12/17 02:55:03;;;;;;;10.63;6.05;;;;;;;15.48;53.14;103596.19;5056349;28;20063;-61
2023/12/17 02:57:29;;;;;;;12.15;6.03;;;;;;;15.45;52.76;103585.53;5073789;28;20496;-62
2023/12/17 02:59:54;;;;;;;12.20;6.18;;;;;;;15.46;53.25;103581.00;5073936;28;20059;-62
2023/12/17 03:02:20;;;;;;;9.85;5.88;;;;;;;15.46;53.01;103572.91;5074029;28;20036;-61
2023/12/17 03:04:46;;;;;;;12.18;5.53;;;;;;;15.45;53.55;103576.56;5055945;28;20104;-62
2023/12/17 03:07:11;;;;;;;12.48;6.35;;;;;;;15.42;53.17;103588.41;5072613;28;20040;-62
2023/12/17 03:09:36;;;;;;;15.93;6.22;;;;;;;15.37;53.38;103595.94;5055691;28;20029;-59
2023/12/17 03:12:03;;;;;;;17.35;5.93;;;;;;;15.33;52.52;103588.97;5072680;28;20036;-58
2023/12/17 03:14:30;;;;;;;14.68;5.82;;;;;;;15.32;52.79;103592.66;5073948;28;20035;-59
2023/12/17 03:16:56;;;;;;;11.95;6.30;;;;;;;15.31;52.67;103588.19;5071249;28;20045;-59
2023/12/17 03:19:22;;;;;;;14.95;6.28;;;;;;;15.29;53.73;103576.63;5072651;28;20111;-58
2023/12/17 03:21:47;;;;;;;12.90;6.90;;;;;;;15.28;52.10;103574.88;5075089;28;20024;-58
2023/12/17 03:24:13;;;;;;;10.18;5.43;;;;;;;15.29;53.37;103579.31;5074457;28;20029;-59
2023/12/17 03:26:38;;;;;;;12.13;6.20;;;;;;;15.29;53.63;103582.03;5076340;28;20036;-64
2023/12/17 03:29:03;;;;;;;13.07;6.90;;;;;;;15.28;53.36;103582.09;5074421;27;20025;-59
2023/12/17 03:31:29;;;;;;;15.35;6.93;;;;;;;15.24;52.78;103567.94;5076511;28;20024;-59
2023/12/17 03:33:54;;;;;;;12.75;5.88;;;;;;;15.22;53.83;103575.22;5076698;28;20048;-59
2023/12/17 03:36:20;;;;;;;9.15;4.70;;;;;;;15.17;53.17;103566.53;5073221;28;20430;-59
2023/12/17 03:38:46;;;;;;;13.68;6.20;;;;;;;15.17;53.73;103571.94;5073438;28;20023;-59
2023/12/17 03:41:25;;;;;;;14.77;6.10;;;;;;;15.17;52.21;103577.34;5073194;28;20032;-58
2023/12/17 03:43:53;;;;;;;13.27;5.85;;;;;;;15.16;52.16;103571.06;5072192;28;20024;-58
2023/12/17 03:46:22;;;;;;;12.82;4.90;;;;;;;15.15;53.96;103572.06;5073325;27;20468;-59
2023/12/17 03:48:48;;;;;;;11.25;5.75;;;;;;;15.14;53.76;103566.72;5073112;28;20488;-58
2023/12/17 03:51:14;;;;;;;10.27;5.55;;;;;;;15.17;53.07;103569.25;5072043;28;20032;-58
2023/12/17 03:53:39;;;;;;;11.95;5.95;;;;;;;15.16;52.39;103562.09;5073180;27;20086;-58
2023/12/17 03:56:14;;;;;;;10.77;6.18;;;;;;;15.15;52.92;103560.38;5071690;28;20064;-59
2023/12/17 03:58:40;;;;;;;13.98;5.80;;;;;;;15.13;53.24;103565.00;5071717;28;20109;-58
2023/12/17 04:01:06;;;;;;;14.20;6.30;;;;;;;15.13;52.73;103559.59;5071821;28;20494;-59
2023/12/17 04:03:32;;;;;;;9.55;5.70;;;;;;;15.14;52.43;103558.63;5071760;28;20036;-58
2023/12/17 04:05:59;;;;;;;13.30;6.68;;;;;;;15.16;53.08;103559.41;5071922;28;20369;-58
2023/12/17 04:08:25;;;;;;;13.25;6.82;;;;;;;15.18;52.75;103554.78;5071748;28;20044;-58
2023/12/17 04:10:50;;;;;;;11.68;5.68;;;;;;;15.16;52.72;103556.69;5071455;28;20040;-58
2023/12/17 04:13:15;;;;;;;16.30;6.65;;;;;;;15.11;52.99;103545.31;5073035;28;20060;-58
2023/12/17 04:15:41;;;;;;;12.07;6.40;;;;;;;15.11;52.23;103551.59;5071555;28;20040;-59
2023/12/17 04:18:06;;;;;;;13.30;5.80;;;;;;;15.03;53.10;103532.28;5071536;28;20037;-58
2023/12/17 04:20:31;;;;;;;11.80;5.22;;;;;;;15.05;52.20;103542.97;5072807;28;20032;-58
2023/12/17 04:22:57;;;;;;;9.80;5.55;;;;;;;15.00;53.05;103535.16;5072817;28;20049;-58
2023/12/17 04:25:22;;;;;;;11.25;5.82;;;;;;;14.95;52.85;103528.28;5054767;28;20036;-58
2023/12/17 04:27:48;;;;;;;13.50;6.25;;;;;;;14.96;52.43;103525.50;5054806;28;20159;-58
2023/12/17 04:30:13;;;;;;;10.90;5.80;;;;;;;14.96;52.17;103530.03;5071259;28;20055;-58
2023/12/17 04:32:38;;;;;;;12.27;4.70;;;;;;;14.96;52.78;103530.03;5071494;28;20511;-58
2023/12/17 04:35:06;;;;;;;13.75;5.70;;;;;;;14.94;53.25;103529.25;5071339;28;20032;-58
2023/12/17 04:37:31;;;;;;;9.65;5.32;;;;;;;14.96;53.19;103530.03;5072758;28;20037;-58
2023/12/17 04:39:57;;;;;;;11.80;6.03;;;;;;;14.96;52.28;103530.03;5071468;28;20036;-59
2023/12/17 04:42:22;;;;;;;12.75;6.47;;;;;;;14.96;53.39;103538.97;5072717;28;20060;-58
2023/12/17 04:44:47;;;;;;;11.27;5.75;;;;;;;14.95;52.98;103533.69;5073742;28;20542;-59
2023/12/17 04:47:13;;;;;;;9.82;5.18;;;;;;;14.99;52.17;103546.06;5076720;28;20119;-58
2023/12/17 04:49:39;;;;;;;13.98;5.75;;;;;;;14.98;52.47;103541.59;5075434;28;20032;-58
2023/12/17 04:52:05;;;;;;;10.68;5.55;;;;;;;15.00;53.60;103545.06;5075362;28;20033;-59
2023/12/17 04:54:31;;;;;;;11.60;4.70;;;;;;;14.96;53.45;103546.25;5076423;28;20491;-58
2023/12/17 04:56:56;;;;;;;10.93;4.63;;;;;;;14.92;52.78;103544.66;5068778;28;20074;-59
2023/12/17 04:59:22;;;;;;;9.70;4.95;;;;;;;14.92;52.29;103539.28;5074791;28;20062;-58
2023/12/17 05:01:47;;;;;;;11.93;5.57;;;;;;;14.90;52.84;103541.19;5075259;28;20033;-58
2023/12/17 05:04:15;;;;;;;11.77;4.93;;;;;;;14.83;53.53;103534.41;5058333;28;20487;-58
2023/12/17 05:06:40;;;;;;;13.25;5.22;;;;;;;14.79;52.70;103535.56;5075201;28;20102;-58
2023/12/17 05:09:06;;;;;;;12.75;5.03;;;;;;;14.77;53.17;103532.09;5075003;28;20495;-58
2023/12/17 05:11:31;;;;;;;11.63;5.43;;;;;;;14.74;53.41;103532.28;5058113;28;20036;-58
2023/12/17 05:13:57;;;;;;;8.45;4.60;;;;;;;14.68;53.14;103535.31;5076230;28;20145;-58
2023/12/17 05:16:22;;;;;;;11.40;5.40;;;;;;;14.69;52.60;103523.56;5074973;28;20025;-58
2023/12/17 05:18:47;;;;;;;11.23;5.55;;;;;;;14.71;52.85;103532.44;5075952;28;20041;-58
2023/12/17 05:21:14;;;;;;;12.00;5.40;;;;;;;14.70;53.68;103530.69;5075826;28;20377;-58
2023/12/17 05:23:40;;;;;;;12.68;5.00;;;;;;;14.71;52.27;103535.16;5074566;28;20028;-59
2023/12/17 05:26:05;;;;;;;10.25;6.13;;;;;;;14.70;53.02;103525.31;5076070;28;20514;-58
2023/12/17 05:28:30;;;;;;;12.07;5.38;;;;;;;14.74;53.82;103529.56;5075896;28;20082;-59
2023/12/17 05:30:56;;;;;;;14.77;5.78;;;;;;;14.74;52.73;103526.88;5077953;28;20036;-58
2023/12/17 05:33:23;;;;;;;14.50;6.03;;;;;;;14.73;52.63;103522.44;5076724;28;20482;-58
2023/12/17 05:35:48;;;;;;;9.80;4.63;;;;;;;14.73;52.28;103533.22;5074922;28;20496;-58
2023/12/17 05:38:16;;;;;;;10.07;5.22;;;;;;;14.71;52.25;103524.34;5074950;28;20037;-58
2023/12/17 05:40:41;;;;;;;10.95;5.18;;;;;;;14.71;53.19;103529.75;5074364;28;20029;-58
2023/12/17 05:43:08;;;;;;;10.13;4.30;;;;;;;14.69;52.39;103527.13;5073312;28;20040;-58
2023/12/17 05:45:33;;;;;;;10.88;5.40;;;;;;;14.66;52.44;103521.03;5075642;28;20542;-58
2023/12/17 05:47:59;;;;;;;10.55;4.63;;;;;;;14.66;53.04;103521.03;5074133;28;20029;-58
2023/12/17 05:50:25;;;;;;;10.00;4.68;;;;;;;14.67;52.03;103514.69;5074287;28;20078;-58
2023/12/17 05:52:50;;;;;;;11.98;5.70;;;;;;;14.69;53.40;103516.34;5075455;28;20028;-58
2023/12/17 05:55:15;;;;;;;11.55;5.20;;;;;;;14.65;53.37;103511.22;5075349;28;20034;-58
2023/12/17 05:57:44;;;;;;;13.57;6.10;;;;;;;14.67;53.17;103517.38;5072790;28;20530;-58
2023/12/17 06:00:11;;;;;;;10.07;4.45;;;;;;;14.61;52.61;103512.34;5075245;28;20028;-59
2023/12/17 06:02:36;;;;;;;12.32;5.25;;;;;;;14.57;53.64;103509.81;5075246;28;20035;-59
2023/12/17 06:05:02;;;;;;;9.95;5.32;;;;;;;14.48;52.59;103493.31;5075373;28;20036;-59
2023/12/17 06:07:27;;;;;;;13.68;5.78;;;;;;;14.49;52.97;103509.41;5073971;28;20059;-58
2023/12/17 06:09:53;;;;;;;10.02;5.15;;;;;;;14.47;52.24;103503.22;5074880;28;20033;-58
2023/12/17 06:12:18;;;;;;;13.13;5.00;;;;;;;14.43;52.80;103509.75;5073439;28;20032;-58
2023/12/17 06:14:43;;;;;;;12.85;5.75;;;;;;;14.44;53.27;103516.00;5073723;28;20082;-59
2023/12/17 06:17:10;;;;;;;16.27;6.28;;;;;;;14.41;53.18;103511.66;5073675;28;20037;-58
2023/12/17 06:19:37;;;;;;;11.25;5.03;;;;;;;14.38;52.52;103516.38;5073696;28;20404;-58
2023/12/17 06:22:03;;;;;;;11.35;5.47;;;;;;;14.39;53.12;103520.81;5073479;28;20036;-58
2023/12/17 06:24:28;;;;;;;10.65;5.38;;;;;;;14.39;53.54;103524.38;5074757;28;20074;-58
2023/12/17 06:26:54;;;;;;;11.05;5.95;;;;;;;14.37;53.43;103529.00;5074845;28;20040;-59
2023/12/17 06:29:19;;;;;;;10.23;5.20;;;;;;;14.36;52.78;103529.94;5073223;28;20028;-59
2023/12/17 06:31:45;;;;;;;11.60;6.05;;;;;;;14.33;53.25;103527.44;5074507;28;20051;-58
2023/12/17 06:34:10;;;;;;;14.38;5.75;;;;;;;14.29;53.41;103531.19;5074631;28;20028;-58
2023/12/17 06:36:36;;;;;;;15.10;5.20;;;;;;;14.31;52.58;103531.13;5074853;28;20510;-59
2023/12/17 06:39:01;;;;;;;12.77;5.35;;;;;;;14.26;52.69;103528.72;5074424;28;20047;-58
2023/12/17 06:41:26;;;;;;;12.73;5.03;;;;;;;14.25;53.66;103536.88;5073240;28;20116;-58
2023/12/17 06:43:52;;;;;;;10.73;5.25;;;;;;;14.22;52.61;103527.13;5074332;28;20032;-58
2023/12/17 06:46:18;;;;;;;11.00;4.88;;;;;;;14.23;53.31;103531.56;5073158;28;20029;-59
2023/12/17 06:48:46;;;;;;;11.50;5.10;;;;;;;14.20;52.13;103529.06;5075621;28;20434;-58
2023/12/17 06:51:12;;;;;;;12.60;5.20;;;;;;;14.20;52.70;103531.75;5058758;28;20047;-58
2023/12/17 06:53:37;;;;;;;10.35;5.55;;;;;;;14.20;52.36;103528.19;5074608;28;20037;-58
2023/12/17 06:56:03;;;;;;;11.93;5.15;;;;;;;14.21;51.94;103541.56;5074098;28;20068;-58
2023/12/17 06:58:28;;;;;;;12.32;5.28;;;;;;;14.20;53.35;103531.75;5073907;28;20029;-58
2023/12/17 07:00:54;;;;;;;11.55;5.68;;;;;;;14.24;53.42;103536.00;5073726;28;20428;-58
2023/12/17 07:03:20;;;;;;;12.23;4.70;;;;;;;14.24;52.39;103535.13;5072717;28;20523;-58
2023/12/17 07:05:45;;;;;;;12.02;5.47;;;;;;;14.25;52.10;103531.47;5072665;28;20036;-58
2023/12/17 07:08:11;;;;;;;9.80;5.10;;;;;;;14.27;53.11;103527.72;5073952;28;20055;-59
2023/12/17 07:10:36;;;;;;;8.07;4.80;;;;;;;14.24;52.42;103524.34;5074029;28;20035;-58
2023/12/17 07:13:03;;;;;;;9.50;4.93;;;;;;;14.24;53.58;103533.28;5073194;28;20518;-58
2023/12/17 07:15:29;;;;;;;14.70;5.35;;;;;;;14.24;52.88;103525.22;5056515;28;20494;-58
2023/12/17 07:17:54;;;;;;;13.57;5.50;;;;;;;14.23;52.10;103528.88;5073841;28;20040;-58
2023/12/17 07:20:19;;;;;;;14.60;5.38;;;;;;;14.22;52.35;103518.16;5075010;28;20024;-58
2023/12/17 07:22:45;;;;;;;13.07;5.57;;;;;;;14.24;51.95;103532.41;5075668;28;20382;-59
2023/12/17 07:25:10;;;;;;;11.48;5.35;;;;;;;14.23;51.92;103533.41;5074654;28;20032;-59
2023/12/17 07:27:35;;;;;;;12.13;5.22;;;;;;;14.22;52.05;103531.66;5073618;28;20033;-61
2023/12/17 07:30:01;;;;;;;16.27;5.78;;;;;;;14.21;52.21;103524.53;5073893;28;20109;-58
2023/12/17 07:32:26;;;;;;;11.63;5.97;;;;;;;14.26;52.22;103534.09;5072120;28;20054;-58
2023/12/17 07:34:51;;;;;;;13.15;6.57;;;;;;;14.26;52.21;103534.09;5073374;28;20051;-58
2023/12/17 07:37:17;;;;;;;15.52;6.20;;;;;;;14.26;53.16;103528.72;5073428;28;20032;-58
2023/12/17 07:39:42;;;;;;;13.32;5.90;;;;;;;14.21;53.21;103525.38;5073375;28;20441;-58
2023/12/17 07:42:08;;;;;;;10.30;5.30;;;;;;;14.24;52.74;103536.00;5055403;28;20032;-58
2023/12/17 07:44:33;;;;;;;12.85;5.45;;;;;;;14.26;52.77;103533.22;5073184;28;20033;-58
2023/12/17 07:46:59;;;;;;;10.57;4.95;;;;;;;14.26;51.88;103542.19;5073297;28;20373;-58
2023/12/17 07:49:24;;;;;;;13.70;5.80;;;;;;;14.24;52.85;103533.28;5055246;28;20115;-58
2023/12/17 07:51:50;;;;;;;13.50;5.78;;;;;;;14.22;52.54;103540.59;5073141;28;20047;-59
2023/12/17 07:54:16;;;;;;;10.95;4.93;;;;;;;14.21;52.72;103541.56;5054851;28;20416;-58
2023/12/17 07:56:42;;;;;;;9.90;4.82;;;;;;;14.21;52.47;103555.03;5072975;28;20057;-59
2023/12/17 07:59:07;;;;;;;16.42;5.57;;;;;;;14.13;53.33;103549.19;5071859;28;20083;-58
2023/12/17 08:01:33;;;;;;;11.43;5.45;;;;;;;14.15;53.11;103555.41;5071799;28;20032;-59
2023/12/17 08:03:59;;;;;;;13.38;5.85;;;;;;;14.15;52.31;103558.09;5073019;28;20056;-58
2023/12/17 08:06:24;;;;;;;9.15;4.65;;;;;;;14.09;52.59;103547.66;5073032;28;20067;-58
2023/12/17 08:08:53;;;;;;;15.68;4.68;;;;;;;14.13;53.49;103554.59;5071815;28;20108;-58
2023/12/17 08:11:19;;;;;;;11.13;4.78;;;;;;;14.17;53.53;103556.19;5054962;28;20029;-58
2023/12/17 08:13:45;;;;;;;15.82;5.90;;;;;;;14.15;52.82;103562.63;5071982;28;20031;-58
2023/12/17 08:16:10;;;;;;;16.63;6.28;;;;;;;14.15;52.56;103557.22;5054758;28;20029;-58
2023/12/17 08:18:36;;;;;;;10.80;5.75;;;;;;;14.17;52.40;103558.00;5071484;28;20404;-58
2023/12/17 08:21:01;;;;;;;13.20;5.35;;;;;;;14.15;52.59;103552.72;5070877;28;20098;-59
2023/12/17 08:23:27;;;;;;;10.55;5.25;;;;;;;14.20;51.67;103561.41;5054791;28;20043;-58
2023/12/17 08:25:52;;;;;;;11.07;6.35;;;;;;;14.23;51.47;103555.84;5071825;28;20032;-58
2023/12/17 08:28:21;;;;;;;13.98;5.03;;;;;;;14.24;51.92;103557.56;5054872;28;20549;-58
2023/12/17 08:30:46;;;;;;;13.00;6.22;;;;;;;14.23;51.80;103552.28;5072871;28;20114;-58
2023/12/17 08:33:12;;;;;;;10.93;5.03;;;;;;;14.21;53.02;103552.34;5072770;28;20445;-58
2023/12/17 08:35:38;;;;;;;14.95;5.53;;;;;;;14.20;53.40;103544.34;5072695;28;20033;-59
2023/12/17 08:38:05;;;;;;;11.32;6.05;;;;;;;14.23;51.79;103550.44;5072706;28;20036;-59
2023/12/17 08:40:33;;;;;;;10.80;4.93;;;;;;;14.22;53.21;103556.78;5071664;28;20029;-58
2023/12/17 08:42:58;;;;;;;11.43;5.25;;;;;;;14.20;52.87;103555.13;5071644;28;20090;-59
2023/12/17 08:45:24;;;;;;;13.32;6.25;;;;;;;14.18;52.95;103563.28;5072948;28;20040;-59
2023/12/17 08:47:50;;;;;;;11.77;5.38;;;;;;;14.22;51.86;103564.88;5072876;28;20025;-58
2023/12/17 08:50:15;;;;;;;13.38;5.32;;;;;;;14.20;52.12;103564.09;5072988;28;20037;-58
2023/12/17 08:52:41;;;;;;;15.07;6.30;;;;;;;14.19;52.62;103569.56;5073784;28;20032;-60
2023/12/17 08:55:06;;;;;;;13.45;5.88;;;;;;;14.18;51.41;103562.44;5073822;28;20042;-58
2023/12/17 08:57:31;;;;;;;14.95;6.15;;;;;;;14.22;51.63;103570.25;5074212;28;20052;-58
2023/12/17 08:59:57;;;;;;;12.93;7.38;;;;;;;14.22;52.16;103569.38;5071832;28;20520;-59
2023/12/17 09:02:25;;;;;;;13.73;6.88;;;;;;;14.28;51.63;103567.22;5071313;28;20039;-58
2023/12/17 09:04:52;;;;;;;13.77;5.88;;;;;;;14.31;52.51;103564.38;5071074;28;20093;-58
2023/12/17 09:07:18;;;;;;;14.10;6.07;;;;;;;14.37;51.38;103563.19;5072296;28;20055;-59
2023/12/17 09:09:43;;;;;;;12.00;5.53;;;;;;;14.38;52.22;103563.09;5071226;28;20420;-58
2023/12/17 09:12:09;;;;;;;14.93;6.53;;;;;;;14.43;51.98;103563.69;5070791;28;20025;-59
2023/12/17 09:14:35;;;;;;;8.55;5.05;;;;;;;14.48;52.85;103567.03;5070514;28;20029;-62
2023/12/17 09:17:01;;;;;;;15.73;5.95;;;;;;;14.50;52.18;103567.78;5072305;28;20510;-59
2023/12/17 09:19:27;;;;;;;12.40;5.07;;;;;;;14.51;52.53;103561.44;5072536;28;20024;-59
2023/12/17 09:21:52;;;;;;;15.38;6.25;;;;;;;14.53;52.63;103564.03;5071365;28;20048;-59
2023/12/17 09:24:18;;;;;;;12.57;6.38;;;;;;;14.52;52.58;103567.69;5071917;27;20016;-59
2023/12/17 09:26:45;;;;;;;11.10;5.00;;;;;;;14.50;52.81;103559.69;5072568;28;20045;-58
2023/12/17 09:29:10;;;;;;;10.32;5.45;;;;;;;14.48;51.42;103564.31;5071265;28;20016;-58
2023/12/17 09:31:35;;;;;;;11.00;4.82;;;;;;;14.47;52.10;103570.66;5072409;27;20369;-59
2023/12/17 09:34:01;;;;;;;12.68;5.55;;;;;;;14.44;51.45;103557.34;5073006;28;20025;-59
2023/12/17 09:36:27;;;;;;;14.50;5.75;;;;;;;14.43;52.75;103562.84;5076258;28;20016;-59
2023/12/17 09:38:52;;;;;;;10.70;5.38;;;;;;;14.44;51.49;103560.03;5075873;28;20024;-59
2023/12/17 09:41:18;;;;;;;11.00;5.30;;;;;;;14.48;51.59;103567.03;5074529;28;20402;-59
2023/12/17 09:43:43;;;;;;;10.50;5.00;;;;;;;14.46;52.85;103568.91;5074182;28;20472;-59
2023/12/17 09:46:09;;;;;;;10.02;4.60;;;;;;;14.42;52.52;103564.66;5075467;28;20091;-59
2023/12/17 09:48:35;;;;;;;14.52;4.60;;;;;;;14.42;52.27;103574.56;5074290;28;20044;-59
2023/12/17 09:51:01;;;;;;;10.15;5.50;;;;;;;14.39;51.44;103570.22;5074245;28;20021;-59
2023/12/17 09:53:29;;;;;;;10.88;4.70;;;;;;;14.40;51.34;103566.59;5075690;28;20020;-59
2023/12/17 09:55:54;;;;;;;10.60;4.80;;;;;;;14.42;52.48;103567.38;5074102;28;20403;-59
2023/12/17 09:58:20;;;;;;;10.18;5.47;;;;;;;14.47;51.20;103556.31;5074612;28;20088;-59
2023/12/17 10:00:45;;;;;;;12.80;4.93;;;;;;;14.50;52.70;103562.41;5075335;27;20035;-59
2023/12/17 10:03:14;;;;;;;12.65;4.90;;;;;;;14.55;52.33;103546.81;5076343;28;20029;-59
2023/12/17 10:05:40;;;;;;;17.67;5.97;;;;;;;14.62;51.99;103550.03;5075001;28;20089;-59
2023/12/17 10:08:05;;;;;;;10.73;4.97;;;;;;;14.68;50.97;103540.72;5074101;28;20036;-59
2023/12/17 10:10:31;;;;;;;15.23;5.18;;;;;;;14.70;52.16;103539.66;5074233;28;20439;-59
2023/12/17 10:12:56;;;;;;;13.43;5.63;;;;;;;14.85;52.19;103537.91;5074021;28;20032;-59
2023/12/17 10:15:22;;;;;;;20.17;6.55;;;;;;;14.91;50.99;103537.50;5073827;27;20037;-59
2023/12/17 10:17:47;;;;;;;13.80;5.70;;;;;;;14.97;52.17;103537.16;5057218;28;20044;-59
2023/12/17 10:20:19;;;;;;;15.98;6.10;;;;;;;15.04;50.92;103541.25;5074235;28;20399;-59
2023/12/17 10:22:58;;;;;;;17.95;5.78;;;;;;;15.10;51.16;103538.19;5073766;28;20399;-59
2023/12/17 10:25:24;;;;;;;12.50;5.70;;;;;;;15.27;51.87;103535.31;5074088;28;20033;-59
2023/12/17 10:27:54;;;;;;;17.67;5.40;;;;;;;15.36;51.38;103532.06;5074975;28;20031;-58
2023/12/17 10:30:19;;;;;;;13.23;5.60;;;;;;;15.48;50.53;103527.78;5075131;28;20034;-58
2023/12/17 10:32:45;;;;;;;14.90;5.78;;;;;;;15.60;50.44;103518.91;5075313;28;20115;-58
2023/12/17 10:35:11;;;;;;;17.58;6.18;;;;;;;15.65;50.82;103514.09;5075441;28;20070;-58
2023/12/17 10:37:37;;;;;;;14.93;5.32;;;;;;;15.87;51.16;103519.88;5073197;28;20041;-58
2023/12/17 10:40:02;;;;;;;17.92;6.05;;;;;;;16.07;50.38;103505.06;5072875;28;20040;-58
2023/12/17 10:42:29;;;;;;;17.45;6.32;;;;;;;16.39;50.34;103511.94;5072839;28;20093;-58
2023/12/17 10:44:56;;;;;;;13.52;6.40;;;;;;;16.56;49.76;103503.63;5072783;28;20029;-59
2023/12/17 10:47:23;;;;;;;11.77;6.32;;;;;;;16.89;50.12;103489.63;5056617;28;20415;-59
2023/12/17 10:49:49;;;;;;;12.02;6.35;;;;;;;17.27;49.78;103495.13;5074044;28;20033;-59
2023/12/17 10:52:15;;;;;;;14.80;5.05;;;;;;;17.59;49.17;103485.59;5073471;28;20029;-59
2023/12/17 10:54:41;;;;;;;12.13;5.50;;;;;;;17.88;49.14;103478.97;5073785;28;20524;-59
2023/12/17 10:57:15;;;;;;;14.32;6.45;;;;;;;18.18;48.56;103470.41;5073041;28;20043;-59
2023/12/17 10:59:41;;;;;;;14.27;7.25;;;;;;;18.46;48.41;103458.34;5056415;28;20048;-59
2023/12/17 11:02:08;;;;;;;15.88;6.32;;;;;;;18.67;48.33;103455.88;5073766;28;20481;-59
2023/12/17 11:04:34;;;;;;;13.48;5.03;;;;;;;18.89;48.36;103454.13;5073645;28;20120;-59
2023/12/17 11:06:59;;;;;;;13.30;5.35;;;;;;;19.05;47.80;103454.63;5073382;28;20056;-59
2023/12/17 11:09:24;;;;;;;9.60;5.15;;;;;;;19.16;48.15;103440.22;5075110;28;20121;-59